sensor_id;sensor_type;location;lat;lon;timestamp;pressure;altitude;pressure_sealevel;temperature;humidity
71805;BME280;59654;52.216;5.616;2023-03-24T00:00:13;99554.28;;;9.86;97.85
71805;BME280;59654;52.216;5.616;2023-03-24T00:00:46;99555.03;;;9.88;98.52
71805;BME280;59654;52.216;5.616;2023-03-24T00:01:17;99553.25;;;9.89;98.58
71805;BME280;59654;52.216;5.616;2023-03-24T00:01:49;99554.97;;;9.90;98.46
71805;BME280;59654;52.216;5.616;2023-03-24T00:02:20;99555.91;;;9.89;98.56
71805;BME280;59654;52.216;5.616;2023-03-24T00:02:51;99550.41;;;9.92;98.11
71805;BME280;59654;52.216;5.616;2023-03-24T00:03:22;99551.19;;;9.94;97.97
71805;BME280;59654;52.216;5.616;2023-03-24T00:03:55;99546.72;;;9.94;97.78
71805;BME280;59654;52.216;5.616;2023-03-24T00:04:26;99552.06;;;9.94;98.25
71805;BME280;59654;52.216;5.616;2023-03-24T00:04:57;99553.94;;;9.92;98.06
71805;BME280;59654;52.216;5.616;2023-03-24T00:05:28;99554.88;;;9.91;97.91
71805;BME280;59654;52.216;5.616;2023-03-24T00:06:03;99547.75;;;9.92;98.56
71805;BME280;59654;52.216;5.616;2023-03-24T00:06:35;99540.47;;;9.95;98.51
71805;BME280;59654;52.216;5.616;2023-03-24T00:07:06;99551.09;;;9.95;98.12
71805;BME280;59654;52.216;5.616;2023-03-24T00:07:39;99543.69;;;10.01;98.07
71805;BME280;59654;52.216;5.616;2023-03-24T00:08:10;99550.81;;;10.00;98.19
71805;BME280;59654;52.216;5.616;2023-03-24T00:08:41;99542.66;;;10.03;97.49
71805;BME280;59654;52.216;5.616;2023-03-24T00:09:14;99540.09;;;10.02;97.78
71805;BME280;59654;52.216;5.616;2023-03-24T00:09:46;99539.22;;;10.01;97.81
71805;BME280;59654;52.216;5.616;2023-03-24T00:10:18;99537.50;;;10.00;97.47
71805;BME280;59654;52.216;5.616;2023-03-24T00:10:50;99540.94;;;10.02;98.32
71805;BME280;59654;52.216;5.616;2023-03-24T00:11:22;99548.94;;;10.02;98.05
71805;BME280;59654;52.216;5.616;2023-03-24T00:11:56;99539.16;;;10.03;98.06
71805;BME280;59654;52.216;5.616;2023-03-24T00:12:27;99539.22;;;10.01;98.05
71805;BME280;59654;52.216;5.616;2023-03-24T00:12:58;99540.19;;;10.00;97.71
71805;BME280;59654;52.216;5.616;2023-03-24T00:13:30;99549.88;;;10.01;98.04
71805;BME280;59654;52.216;5.616;2023-03-24T00:14:02;99545.63;;;9.99;97.68
71805;BME280;59654;52.216;5.616;2023-03-24T00:14:35;99545.88;;;9.94;98.49
71805;BME280;59654;52.216;5.616;2023-03-24T00:15:11;99538.75;;;9.94;98.02
71805;BME280;59654;52.216;5.616;2023-03-24T00:15:48;99536.06;;;9.94;98.29
71805;BME280;59654;52.216;5.616;2023-03-24T00:16:19;99528.94;;;9.95;98.36
71805;BME280;59654;52.216;5.616;2023-03-24T00:16:51;99530.75;;;9.94;98.67
71805;BME280;59654;52.216;5.616;2023-03-24T00:17:24;99522.00;;;9.92;98.47
71805;BME280;59654;52.216;5.616;2023-03-24T00:17:58;99528.00;;;9.96;98.34
71805;BME280;59654;52.216;5.616;2023-03-24T00:18:29;99525.25;;;9.98;98.40
71805;BME280;59654;52.216;5.616;2023-03-24T00:19:00;99523.47;;;9.98;98.13
71805;BME280;59654;52.216;5.616;2023-03-24T00:19:31;99523.47;;;9.98;97.97
71805;BME280;59654;52.216;5.616;2023-03-24T00:20:05;99526.88;;;10.00;98.60
71805;BME280;59654;52.216;5.616;2023-03-24T00:20:43;99523.16;;;10.03;97.89
71805;BME280;59654;52.216;5.616;2023-03-24T00:21:15;99519.66;;;10.02;98.54
71805;BME280;59654;52.216;5.616;2023-03-24T00:21:47;99527.63;;;10.02;98.41
71805;BME280;59654;52.216;5.616;2023-03-24T00:22:18;99516.97;;;10.02;98.17
71805;BME280;59654;52.216;5.616;2023-03-24T00:22:53;99520.41;;;10.04;97.73
71805;BME280;59654;52.216;5.616;2023-03-24T00:23:30;99509.69;;;10.06;98.03
71805;BME280;59654;52.216;5.616;2023-03-24T00:24:05;99521.97;;;10.08;97.81
71805;BME280;59654;52.216;5.616;2023-03-24T00:24:42;99511.31;;;10.08;98.04
71805;BME280;59654;52.216;5.616;2023-03-24T00:25:17;99517.50;;;10.09;98.33
71805;BME280;59654;52.216;5.616;2023-03-24T00:26:10;99504.09;;;10.10;97.50
71805;BME280;59654;52.216;5.616;2023-03-24T00:26:44;99508.50;;;10.11;97.91
71805;BME280;59654;52.216;5.616;2023-03-24T00:27:16;99512.00;;;10.12;97.43
71805;BME280;59654;52.216;5.616;2023-03-24T00:27:49;99506.75;;;10.10;97.89
71805;BME280;59654;52.216;5.616;2023-03-24T00:28:21;99511.16;;;10.11;97.67
71805;BME280;59654;52.216;5.616;2023-03-24T00:28:52;99507.72;;;10.09;97.99
71805;BME280;59654;52.216;5.616;2023-03-24T00:29:25;99503.16;;;10.11;98.00
71805;BME280;59654;52.216;5.616;2023-03-24T00:29:57;99500.50;;;10.11;97.73
71805;BME280;59654;52.216;5.616;2023-03-24T00:30:29;99502.38;;;10.09;98.20
71805;BME280;59654;52.216;5.616;2023-03-24T00:31:00;99502.38;;;10.09;97.72
71805;BME280;59654;52.216;5.616;2023-03-24T00:31:34;99491.72;;;10.09;98.00
71805;BME280;59654;52.216;5.616;2023-03-24T00:32:09;99493.63;;;10.07;97.71
71805;BME280;59654;52.216;5.616;2023-03-24T00:32:40;99492.84;;;10.05;97.62
71805;BME280;59654;52.216;5.616;2023-03-24T00:33:11;99491.31;;;10.01;98.48
71805;BME280;59654;52.216;5.616;2023-03-24T00:33:44;99500.22;;;10.00;98.72
71805;BME280;59654;52.216;5.616;2023-03-24T00:34:20;99504.53;;;10.03;97.88
71805;BME280;59654;52.216;5.616;2023-03-24T00:34:51;99488.56;;;10.03;97.88
71805;BME280;59654;52.216;5.616;2023-03-24T00:35:24;99485.03;;;10.02;98.16
71805;BME280;59654;52.216;5.616;2023-03-24T00:35:54;99490.28;;;10.04;98.28
71805;BME280;59654;52.216;5.616;2023-03-24T00:36:27;99492.06;;;10.03;98.21
71805;BME280;59654;52.216;5.616;2023-03-24T00:36:58;99494.75;;;10.03;98.57
71805;BME280;59654;52.216;5.616;2023-03-24T00:37:30;99484.84;;;10.05;98.81
71805;BME280;59654;52.216;5.616;2023-03-24T00:38:01;99491.03;;;10.06;98.59
71805;BME280;59654;52.216;5.616;2023-03-24T00:38:33;99485.72;;;10.06;98.63
71805;BME280;59654;52.216;5.616;2023-03-24T00:39:04;99485.81;;;10.04;97.94
71805;BME280;59654;52.216;5.616;2023-03-24T00:39:35;99494.56;;;10.06;98.51
71805;BME280;59654;52.216;5.616;2023-03-24T00:40:13;99483.91;;;10.06;98.68
71805;BME280;59654;52.216;5.616;2023-03-24T00:40:46;99475.94;;;10.06;98.11
71805;BME280;59654;52.216;5.616;2023-03-24T00:41:18;99484.69;;;10.08;98.31
71805;BME280;59654;52.216;5.616;2023-03-24T00:41:49;99484.50;;;10.11;98.47
71805;BME280;59654;52.216;5.616;2023-03-24T00:42:20;99476.34;;;10.14;98.18
71805;BME280;59654;52.216;5.616;2023-03-24T00:42:51;99487.09;;;10.13;97.53
71805;BME280;59654;52.216;5.616;2023-03-24T00:43:23;99480.91;;;10.12;98.25
71805;BME280;59654;52.216;5.616;2023-03-24T00:43:57;99471.97;;;10.13;97.99
71805;BME280;59654;52.216;5.616;2023-03-24T00:44:29;99467.50;;;10.14;97.76
71805;BME280;59654;52.216;5.616;2023-03-24T00:45:01;99479.00;;;10.14;98.02
71805;BME280;59654;52.216;5.616;2023-03-24T00:45:33;99470.25;;;10.12;97.98
71805;BME280;59654;52.216;5.616;2023-03-24T00:46:07;99485.53;;;10.09;98.20
71805;BME280;59654;52.216;5.616;2023-03-24T00:46:40;99484.78;;;10.07;98.14
71805;BME280;59654;52.216;5.616;2023-03-24T00:47:15;99470.44;;;10.09;98.59
71805;BME280;59654;52.216;5.616;2023-03-24T00:47:48;99488.97;;;10.11;98.66
71805;BME280;59654;52.216;5.616;2023-03-24T00:48:23;99465.88;;;10.11;98.26
71805;BME280;59654;52.216;5.616;2023-03-24T00:49:36;99472.66;;;10.01;98.18
71805;BME280;59654;52.216;5.616;2023-03-24T00:50:18;99474.22;;;10.05;98.41
71805;BME280;59654;52.216;5.616;2023-03-24T00:50:50;99467.16;;;10.04;98.31
71805;BME280;59654;52.216;5.616;2023-03-24T00:51:22;99465.44;;;10.03;98.28
71805;BME280;59654;52.216;5.616;2023-03-24T00:51:53;99463.63;;;10.04;98.14
71805;BME280;59654;52.216;5.616;2023-03-24T00:52:27;99457.38;;;10.05;98.61
71805;BME280;59654;52.216;5.616;2023-03-24T00:53:03;99462.69;;;10.05;98.96
71805;BME280;59654;52.216;5.616;2023-03-24T00:53:34;99455.56;;;10.05;98.28
71805;BME280;59654;52.216;5.616;2023-03-24T00:54:08;99464.41;;;10.06;98.37
71805;BME280;59654;52.216;5.616;2023-03-24T00:54:41;99455.56;;;10.05;98.82
71805;BME280;59654;52.216;5.616;2023-03-24T00:55:16;99468.88;;;10.05;98.39
71805;BME280;59654;52.216;5.616;2023-03-24T00:55:46;99457.47;;;10.03;98.77
71805;BME280;59654;52.216;5.616;2023-03-24T00:56:19;99456.50;;;10.04;98.34
71805;BME280;59654;52.216;5.616;2023-03-24T00:56:50;99458.41;;;10.02;98.45
71805;BME280;59654;52.216;5.616;2023-03-24T00:57:25;99459.34;;;10.01;98.61
71805;BME280;59654;52.216;5.616;2023-03-24T00:57:56;99454.88;;;10.02;98.83
71805;BME280;59654;52.216;5.616;2023-03-24T00:58:27;99447.91;;;9.99;98.54
71805;BME280;59654;52.216;5.616;2023-03-24T00:58:59;99451.56;;;9.98;99.02
71805;BME280;59654;52.216;5.616;2023-03-24T00:59:31;99452.44;;;9.99;98.40
71805;BME280;59654;52.216;5.616;2023-03-24T01:00:11;99447.09;;;9.99;98.75
71805;BME280;59654;52.216;5.616;2023-03-24T01:00:53;99449.75;;;9.99;99.21
71805;BME280;59654;52.216;5.616;2023-03-24T01:01:26;99463.06;;;9.99;98.70
71805;BME280;59654;52.216;5.616;2023-03-24T01:01:58;99454.09;;;10.00;98.49
71805;BME280;59654;52.216;5.616;2023-03-24T01:02:29;99454.97;;;10.00;98.40
71805;BME280;59654;52.216;5.616;2023-03-24T01:03:00;99457.47;;;10.03;99.24
71805;BME280;59654;52.216;5.616;2023-03-24T01:03:32;99449.47;;;10.03;98.73
71805;BME280;59654;52.216;5.616;2023-03-24T01:04:04;99448.53;;;10.04;98.88
71805;BME280;59654;52.216;5.616;2023-03-24T01:04:39;99452.91;;;10.05;98.79
71805;BME280;59654;52.216;5.616;2023-03-24T01:05:11;99439.59;;;10.05;98.64
71805;BME280;59654;52.216;5.616;2023-03-24T01:05:43;99451.00;;;10.07;98.73
71805;BME280;59654;52.216;5.616;2023-03-24T01:06:18;99442.25;;;10.05;98.69
71805;BME280;59654;52.216;5.616;2023-03-24T01:06:52;99444.16;;;10.03;98.58
71805;BME280;59654;52.216;5.616;2023-03-24T01:07:28;99447.56;;;10.05;98.64
71805;BME280;59654;52.216;5.616;2023-03-24T01:08:00;99445.84;;;10.04;98.95
71805;BME280;59654;52.216;5.616;2023-03-24T01:08:35;99439.59;;;10.05;98.94
71805;BME280;59654;52.216;5.616;2023-03-24T01:09:07;99435.91;;;10.08;98.46
71805;BME280;59654;52.216;5.616;2023-03-24T01:09:39;99445.59;;;10.09;98.80
71805;BME280;59654;52.216;5.616;2023-03-24T01:10:13;99445.59;;;10.09;98.61
71805;BME280;59654;52.216;5.616;2023-03-24T01:10:44;99446.53;;;10.08;98.51
71805;BME280;59654;52.216;5.616;2023-03-24T01:11:21;99440.38;;;10.07;98.96
71805;BME280;59654;52.216;5.616;2023-03-24T01:11:56;99433.31;;;10.06;98.58
71805;BME280;59654;52.216;5.616;2023-03-24T01:12:31;99427.13;;;10.06;98.55
71805;BME280;59654;52.216;5.616;2023-03-24T01:13:03;99431.59;;;10.05;98.55
71805;BME280;59654;52.216;5.616;2023-03-24T01:13:34;99435.22;;;10.04;98.55
71805;BME280;59654;52.216;5.616;2023-03-24T01:14:05;99429.78;;;10.06;99.14
71805;BME280;59654;52.216;5.616;2023-03-24T01:14:36;99430.47;;;10.09;98.69
71805;BME280;59654;52.216;5.616;2023-03-24T01:15:19;99425.94;;;10.11;98.88
71805;BME280;59654;52.216;5.616;2023-03-24T01:15:52;99428.59;;;10.11;98.99
71805;BME280;59654;52.216;5.616;2023-03-24T01:16:23;99435.53;;;10.14;98.91
71805;BME280;59654;52.216;5.616;2023-03-24T01:16:55;99434.63;;;10.15;98.45
71805;BME280;59654;52.216;5.616;2023-03-24T01:17:26;99424.63;;;10.18;98.92
71805;BME280;59654;52.216;5.616;2023-03-24T01:17:59;99427.19;;;10.20;98.77
71805;BME280;59654;52.216;5.616;2023-03-24T01:18:34;99441.56;;;10.17;98.34
71805;BME280;59654;52.216;5.616;2023-03-24T01:19:10;99434.50;;;10.16;98.14
71805;BME280;59654;52.216;5.616;2023-03-24T01:19:40;99431.97;;;10.15;98.78
71805;BME280;59654;52.216;5.616;2023-03-24T01:20:12;99428.31;;;10.16;98.69
71805;BME280;59654;52.216;5.616;2023-03-24T01:20:45;99432.88;;;10.14;98.58
71805;BME280;59654;52.216;5.616;2023-03-24T01:21:18;99431.34;;;10.10;98.42
71805;BME280;59654;52.216;5.616;2023-03-24T01:21:50;99424.22;;;10.10;98.43
71805;BME280;59654;52.216;5.616;2023-03-24T01:22:28;99420.59;;;10.11;98.60
71805;BME280;59654;52.216;5.616;2023-03-24T01:23:01;99422.31;;;10.12;98.55
71805;BME280;59654;52.216;5.616;2023-03-24T01:23:34;99419.75;;;10.11;98.51
71805;BME280;59654;52.216;5.616;2023-03-24T01:24:05;99423.25;;;10.11;98.62
71805;BME280;59654;52.216;5.616;2023-03-24T01:24:37;99425.06;;;10.11;98.57
71805;BME280;59654;52.216;5.616;2023-03-24T01:25:14;99425.06;;;10.11;98.29
71805;BME280;59654;52.216;5.616;2023-03-24T01:25:49;99412.78;;;10.08;97.96
71805;BME280;59654;52.216;5.616;2023-03-24T01:26:20;99414.41;;;10.11;98.59
71805;BME280;59654;52.216;5.616;2023-03-24T01:26:51;99422.41;;;10.11;98.66
71805;BME280;59654;52.216;5.616;2023-03-24T01:27:23;99420.59;;;10.11;98.52
71805;BME280;59654;52.216;5.616;2023-03-24T01:27:53;99423.19;;;10.13;98.41
71805;BME280;59654;52.216;5.616;2023-03-24T01:28:25;99421.38;;;10.13;98.57
71805;BME280;59654;52.216;5.616;2023-03-24T01:28:56;99417.00;;;10.12;98.54
71805;BME280;59654;52.216;5.616;2023-03-24T01:29:27;99419.75;;;10.11;98.75
71805;BME280;59654;52.216;5.616;2023-03-24T01:29:59;99406.25;;;10.14;98.80
71805;BME280;59654;52.216;5.616;2023-03-24T01:30:31;99420.41;;;10.14;98.77
71805;BME280;59654;52.216;5.616;2023-03-24T01:31:02;99407.09;;;10.14;98.53
71805;BME280;59654;52.216;5.616;2023-03-24T01:31:33;99401.69;;;10.16;98.33
71805;BME280;59654;52.216;5.616;2023-03-24T01:32:05;99406.06;;;10.17;98.73
71805;BME280;59654;52.216;5.616;2023-03-24T01:32:36;99411.22;;;10.20;98.89
71805;BME280;59654;52.216;5.616;2023-03-24T01:33:07;99421.03;;;10.19;98.87
71805;BME280;59654;52.216;5.616;2023-03-24T01:33:38;99414.75;;;10.20;98.26
71805;BME280;59654;52.216;5.616;2023-03-24T01:34:09;99417.50;;;10.19;98.44
71805;BME280;59654;52.216;5.616;2023-03-24T01:34:40;99413.88;;;10.20;98.78
71805;BME280;59654;52.216;5.616;2023-03-24T01:35:12;99414.66;;;10.22;98.66
71805;BME280;59654;52.216;5.616;2023-03-24T01:35:43;99417.22;;;10.23;98.79
71805;BME280;59654;52.216;5.616;2023-03-24T01:36:14;99418.94;;;10.24;98.71
71805;BME280;59654;52.216;5.616;2023-03-24T01:36:45;99423.41;;;10.24;98.09
71805;BME280;59654;52.216;5.616;2023-03-24T01:37:16;99410.88;;;10.26;98.56
71805;BME280;59654;52.216;5.616;2023-03-24T01:37:47;99411.63;;;10.28;97.98
71805;BME280;59654;52.216;5.616;2023-03-24T01:38:18;99400.03;;;10.29;98.25
71805;BME280;59654;52.216;5.616;2023-03-24T01:38:48;99406.41;;;10.26;98.49
71805;BME280;59654;52.216;5.616;2023-03-24T01:39:20;99410.97;;;10.24;98.37
71805;BME280;59654;52.216;5.616;2023-03-24T01:39:51;99403.91;;;10.23;98.22
71805;BME280;59654;52.216;5.616;2023-03-24T01:40:30;99403.81;;;10.25;98.57
71805;BME280;59654;52.216;5.616;2023-03-24T01:41:03;99403.72;;;10.26;98.01
71805;BME280;59654;52.216;5.616;2023-03-24T01:41:37;99394.97;;;10.24;98.00
71805;BME280;59654;52.216;5.616;2023-03-24T01:42:18;99411.72;;;10.26;98.13
71805;BME280;59654;52.216;5.616;2023-03-24T01:42:50;99390.59;;;10.23;98.25
71805;BME280;59654;52.216;5.616;2023-03-24T01:43:25;99400.38;;;10.23;97.92
71805;BME280;59654;52.216;5.616;2023-03-24T01:43:57;99393.25;;;10.23;98.35
71805;BME280;59654;52.216;5.616;2023-03-24T01:44:32;99402.03;;;10.25;98.49
71805;BME280;59654;52.216;5.616;2023-03-24T01:45:44;99393.06;;;10.26;98.44
71805;BME280;59654;52.216;5.616;2023-03-24T01:46:25;99393.75;;;10.30;98.27
71805;BME280;59654;52.216;5.616;2023-03-24T01:47:00;99401.63;;;10.31;97.90
71805;BME280;59654;52.216;5.616;2023-03-24T01:47:31;99400.69;;;10.32;98.47
71805;BME280;59654;52.216;5.616;2023-03-24T01:48:03;99383.97;;;10.30;98.26
71805;BME280;59654;52.216;5.616;2023-03-24T01:48:46;99387.56;;;10.29;97.95
71805;BME280;59654;52.216;5.616;2023-03-24T01:49:24;99388.22;;;10.33;98.20
71805;BME280;59654;52.216;5.616;2023-03-24T01:50:00;99393.53;;;10.33;98.25
71805;BME280;59654;52.216;5.616;2023-03-24T01:50:33;99389.16;;;10.32;98.21
71805;BME280;59654;52.216;5.616;2023-03-24T01:51:39;99383.66;;;10.35;98.17
71805;BME280;59654;52.216;5.616;2023-03-24T01:52:16;99384.81;;;10.31;98.06
71805;BME280;59654;52.216;5.616;2023-03-24T01:52:50;99390.25;;;10.29;98.16
71805;BME280;59654;52.216;5.616;2023-03-24T01:53:23;99382.59;;;10.23;97.82
71805;BME280;59654;52.216;5.616;2023-03-24T01:54:10;99376.41;;;10.23;98.32
71805;BME280;59654;52.216;5.616;2023-03-24T01:55:03;99385.94;;;10.27;98.69
71805;BME280;59654;52.216;5.616;2023-03-24T01:55:38;99380.44;;;10.30;98.47
71805;BME280;59654;52.216;5.616;2023-03-24T01:56:11;99384.69;;;10.32;98.41
71805;BME280;59654;52.216;5.616;2023-03-24T01:56:55;99382.72;;;10.36;98.35
71805;BME280;59654;52.216;5.616;2023-03-24T01:57:43;99382.63;;;10.38;98.74
71805;BME280;59654;52.216;5.616;2023-03-24T01:58:18;99379.88;;;10.39;98.17
71805;BME280;59654;52.216;5.616;2023-03-24T01:59:15;99375.31;;;10.41;97.84
71805;BME280;59654;52.216;5.616;2023-03-24T02:00:24;99384.25;;;10.40;98.13
71805;BME280;59654;52.216;5.616;2023-03-24T02:01:16;99377.97;;;10.41;97.90
71805;BME280;59654;52.216;5.616;2023-03-24T02:02:05;99379.69;;;10.42;97.89
71805;BME280;59654;52.216;5.616;2023-03-24T02:02:49;99380.44;;;10.44;98.16
71805;BME280;59654;52.216;5.616;2023-03-24T02:03:30;99368.94;;;10.44;98.13
71805;BME280;59654;52.216;5.616;2023-03-24T02:04:07;99367.13;;;10.44;98.26
71805;BME280;59654;52.216;5.616;2023-03-24T02:04:45;99376.06;;;10.43;97.80
71805;BME280;59654;52.216;5.616;2023-03-24T02:05:28;99370.75;;;10.43;98.31
71805;BME280;59654;52.216;5.616;2023-03-24T02:06:02;99375.13;;;10.44;98.19
71805;BME280;59654;52.216;5.616;2023-03-24T02:06:39;99367.03;;;10.46;98.23
71805;BME280;59654;52.216;5.616;2023-03-24T02:07:35;99378.72;;;10.43;98.31
71805;BME280;59654;52.216;5.616;2023-03-24T02:08:17;99374.44;;;10.41;98.04
71805;BME280;59654;52.216;5.616;2023-03-24T02:08:54;99375.22;;;10.43;98.22
71805;BME280;59654;52.216;5.616;2023-03-24T02:09:27;99373.22;;;10.46;97.77
71805;BME280;59654;52.216;5.616;2023-03-24T02:10:04;99368.75;;;10.47;98.07
71805;BME280;59654;52.216;5.616;2023-03-24T02:10:37;99374.09;;;10.47;98.21
71805;BME280;59654;52.216;5.616;2023-03-24T02:11:09;99367.03;;;10.46;97.80
71805;BME280;59654;52.216;5.616;2023-03-24T02:11:49;99358.94;;;10.47;98.10
71805;BME280;59654;52.216;5.616;2023-03-24T02:12:20;99360.75;;;10.47;97.79
71805;BME280;59654;52.216;5.616;2023-03-24T02:12:51;99369.69;;;10.46;97.95
71805;BME280;59654;52.216;5.616;2023-03-24T02:13:23;99377.69;;;10.46;97.78
71805;BME280;59654;52.216;5.616;2023-03-24T02:13:54;99371.41;;;10.47;97.99
71805;BME280;59654;52.216;5.616;2023-03-24T02:14:26;99357.97;;;10.48;97.92
71805;BME280;59654;52.216;5.616;2023-03-24T02:14:59;99365.78;;;10.51;98.03
71805;BME280;59654;52.216;5.616;2023-03-24T02:15:35;99352.63;;;10.48;97.85
71805;BME280;59654;52.216;5.616;2023-03-24T02:16:57;99345.72;;;10.46;97.97
71805;BME280;59654;52.216;5.616;2023-03-24T02:18:32;99361.81;;;10.44;98.35
71805;BME280;59654;52.216;5.616;2023-03-24T02:21:10;99359.22;;;10.43;98.43
71805;BME280;59654;52.216;5.616;2023-03-24T02:25:27;99357.97;;;10.48;98.27
71805;BME280;59654;52.216;5.616;2023-03-24T02:28:53;99344.00;;;10.45;98.51
71805;BME280;59654;52.216;5.616;2023-03-24T02:43:15;99354.84;;;10.56;98.63
71805;BME280;59654;52.216;5.616;2023-03-24T02:45:14;99375.03;;;10.46;98.85
71805;BME280;59654;52.216;5.616;2023-03-24T02:46:10;99400.22;;;10.40;99.14
71805;BME280;59654;52.216;5.616;2023-03-24T02:47:16;99423.53;;;10.37;99.54
71805;BME280;59654;52.216;5.616;2023-03-24T02:52:23;99422.19;;;10.29;99.83
71805;BME280;59654;52.216;5.616;2023-03-24T02:55:15;99415.88;;;10.16;99.02
71805;BME280;59654;52.216;5.616;2023-03-24T02:56:10;99420.50;;;10.13;98.67
71805;BME280;59654;52.216;5.616;2023-03-24T02:57:04;99440.00;;;10.13;98.28
71805;BME280;59654;52.216;5.616;2023-03-24T02:58:14;99429.53;;;10.10;97.70
71805;BME280;59654;52.216;5.616;2023-03-24T02:59:03;99427.81;;;10.09;97.69
71805;BME280;59654;52.216;5.616;2023-03-24T03:00:02;99425.94;;;10.11;98.04
71805;BME280;59654;52.216;5.616;2023-03-24T03:01:04;99437.53;;;10.10;97.45
71805;BME280;59654;52.216;5.616;2023-03-24T03:02:32;99438.38;;;10.11;97.05
71805;BME280;59654;52.216;5.616;2023-03-24T03:03:22;99428.59;;;10.11;97.33
71805;BME280;59654;52.216;5.616;2023-03-24T03:04:16;99439.25;;;10.11;97.52
71805;BME280;59654;52.216;5.616;2023-03-24T03:04:59;99431.69;;;10.04;97.29
71805;BME280;59654;52.216;5.616;2023-03-24T03:05:51;99432.38;;;10.07;97.40
71805;BME280;59654;52.216;5.616;2023-03-24T03:06:35;99439.50;;;10.07;97.38
71805;BME280;59654;52.216;5.616;2023-03-24T03:07:11;99434.09;;;10.08;97.78
71805;BME280;59654;52.216;5.616;2023-03-24T03:07:47;99441.91;;;10.11;97.47
71805;BME280;59654;52.216;5.616;2023-03-24T03:08:22;99446.38;;;10.11;97.25
71805;BME280;59654;52.216;5.616;2023-03-24T03:09:00;99440.88;;;10.14;97.13
71805;BME280;59654;52.216;5.616;2023-03-24T03:09:40;99447.41;;;10.08;96.56
71805;BME280;59654;52.216;5.616;2023-03-24T03:10:23;99452.91;;;10.05;96.46
71805;BME280;59654;52.216;5.616;2023-03-24T03:11:04;99454.53;;;10.08;96.76
71805;BME280;59654;52.216;5.616;2023-03-24T03:11:45;99460.81;;;10.07;96.69
71805;BME280;59654;52.216;5.616;2023-03-24T03:12:21;99452.72;;;10.08;96.59
71805;BME280;59654;52.216;5.616;2023-03-24T03:12:59;99457.63;;;10.00;95.74
71805;BME280;59654;52.216;5.616;2023-03-24T03:13:42;99471.56;;;9.89;94.98
71805;BME280;59654;52.216;5.616;2023-03-24T03:15:20;99474.50;;;9.85;95.52
71805;BME280;59654;52.216;5.616;2023-03-24T03:16:08;99478.38;;;9.79;95.08
71805;BME280;59654;52.216;5.616;2023-03-24T03:17:16;99475.19;;;9.73;93.66
71805;BME280;59654;52.216;5.616;2023-03-24T03:18:00;99470.31;;;9.65;93.32
71805;BME280;59654;52.216;5.616;2023-03-24T03:18:57;99461.03;;;9.56;92.60
71805;BME280;59654;52.216;5.616;2023-03-24T03:20:14;99473.84;;;9.50;91.68
71805;BME280;59654;52.216;5.616;2023-03-24T03:20:53;99486.69;;;9.42;92.97
71805;BME280;59654;52.216;5.616;2023-03-24T03:21:40;99487.81;;;9.38;93.70
71805;BME280;59654;52.216;5.616;2023-03-24T03:22:22;99487.03;;;9.36;93.63
71805;BME280;59654;52.216;5.616;2023-03-24T03:23:00;99486.09;;;9.37;93.22
71805;BME280;59654;52.216;5.616;2023-03-24T03:23:42;99486.09;;;9.37;92.84
71805;BME280;59654;52.216;5.616;2023-03-24T03:24:21;99475.44;;;9.37;93.18
71805;BME280;59654;52.216;5.616;2023-03-24T03:25:00;99485.22;;;9.36;92.88
71805;BME280;59654;52.216;5.616;2023-03-24T03:25:39;99491.16;;;9.25;92.31
71805;BME280;59654;52.216;5.616;2023-03-24T03:26:19;99495.38;;;9.30;93.36
71805;BME280;59654;52.216;5.616;2023-03-24T03:27:08;99505.72;;;9.34;93.01
71805;BME280;59654;52.216;5.616;2023-03-24T03:27:44;99495.88;;;9.36;92.94
71805;BME280;59654;52.216;5.616;2023-03-24T03:28:21;99513.38;;;9.40;93.71
71805;BME280;59654;52.216;5.616;2023-03-24T03:29:00;99489.44;;;9.40;92.26
71805;BME280;59654;52.216;5.616;2023-03-24T03:29:39;99506.34;;;9.39;93.03
71805;BME280;59654;52.216;5.616;2023-03-24T03:30:28;99500.16;;;9.39;93.26
71805;BME280;59654;52.216;5.616;2023-03-24T03:31:12;99510.22;;;9.34;92.63
71805;BME280;59654;52.216;5.616;2023-03-24T03:31:56;99509.53;;;9.30;91.76
71805;BME280;59654;52.216;5.616;2023-03-24T03:32:43;99514.91;;;9.29;92.03
71805;BME280;59654;52.216;5.616;2023-03-24T03:33:38;99510.09;;;9.35;92.24
71805;BME280;59654;52.216;5.616;2023-03-24T03:34:26;99514.50;;;9.36;92.85
71805;BME280;59654;52.216;5.616;2023-03-24T03:35:15;99513.47;;;9.39;93.21
71805;BME280;59654;52.216;5.616;2023-03-24T03:37:58;99504.97;;;9.32;92.67
71805;BME280;59654;52.216;5.616;2023-03-24T03:39:56;99511.72;;;9.22;91.88
71805;BME280;59654;52.216;5.616;2023-03-24T03:40:37;99510.09;;;9.19;91.29
71805;BME280;59654;52.216;5.616;2023-03-24T03:41:21;99506.75;;;9.16;92.29
71805;BME280;59654;52.216;5.616;2023-03-24T03:41:54;99515.47;;;9.18;91.80
71805;BME280;59654;52.216;5.616;2023-03-24T03:42:26;99503.16;;;9.17;92.22
71805;BME280;59654;52.216;5.616;2023-03-24T03:42:57;99512.94;;;9.16;92.22
71805;BME280;59654;52.216;5.616;2023-03-24T03:43:30;99504.00;;;9.17;92.80
71805;BME280;59654;52.216;5.616;2023-03-24T03:44:03;99509.41;;;9.16;92.35
71805;BME280;59654;52.216;5.616;2023-03-24T03:44:34;99511.03;;;9.18;93.19
71805;BME280;59654;52.216;5.616;2023-03-24T03:45:07;99509.41;;;9.16;93.19
71805;BME280;59654;52.216;5.616;2023-03-24T03:45:39;99512.16;;;9.14;92.06
71805;BME280;59654;52.216;5.616;2023-03-24T03:46:12;99523.66;;;9.15;92.43
71805;BME280;59654;52.216;5.616;2023-03-24T03:46:43;99512.81;;;9.18;92.00
71805;BME280;59654;52.216;5.616;2023-03-24T03:47:19;99519.84;;;9.19;92.72
71805;BME280;59654;52.216;5.616;2023-03-24T03:47:53;99523.47;;;9.18;92.74
71805;BME280;59654;52.216;5.616;2023-03-24T03:48:25;99527.84;;;9.19;92.53
71805;BME280;59654;52.216;5.616;2023-03-24T03:49:02;99522.34;;;9.22;91.67
71805;BME280;59654;52.216;5.616;2023-03-24T03:49:35;99521.41;;;9.23;91.75
71805;BME280;59654;52.216;5.616;2023-03-24T03:50:08;99526.66;;;9.24;91.80
71805;BME280;59654;52.216;5.616;2023-03-24T03:50:39;99527.69;;;9.22;91.00
71805;BME280;59654;52.216;5.616;2023-03-24T03:51:13;99528.53;;;9.22;92.16